Time;durP1;ratioP1;P1;durP2;ratioP2;P2;SDS_P1;SDS_P2;PMS_P1;PMS_P2;Temp;Humidity;BMP_temperature;BMP_pressure;BME280_temperature;BME280_humidity;BME280_pressure;Samples;Min_cycle;Max_cycle;Signal;HPM_P1;HPM_P2
2022/03/08 00:01:45;;;;;;;12.27;7.90;;;2.90;99.90;;;;;;5014716;28;20191;-67
2022/03/08 00:04:10;;;;;;;17.80;9.53;;;2.90;99.90;;;;;;5012367;28;20318;-65
2022/03/08 00:06:36;;;;;;;13.13;7.20;;;2.80;99.90;;;;;;5016524;28;20196;-69
2022/03/08 00:09:02;;;;;;;12.37;8.93;;;2.80;99.90;;;;;;5013829;28;20204;-69
2022/03/08 00:11:28;;;;;;;11.17;7.00;;;2.80;99.90;;;;;;5017637;28;20219;-68
2022/03/08 00:13:53;;;;;;;13.13;8.17;;;2.80;99.90;;;;;;5014808;28;20739;-67
2022/03/08 00:16:20;;;;;;;12.90;7.67;;;2.80;99.90;;;;;;5014602;28;20703;-69
2022/03/08 00:18:48;;;;;;;12.20;7.10;;;2.70;99.90;;;;;;5013990;28;20287;-67
2022/03/08 00:21:15;;;;;;;13.57;7.87;;;2.50;99.90;;;;;;5016543;28;20188;-67
2022/03/08 00:23:40;;;;;;;12.80;8.10;;;2.50;99.90;;;;;;5012409;28;20262;-67
2022/03/08 00:26:06;;;;;;;16.03;8.87;;;2.50;99.90;;;;;;5013159;28;20234;-67
2022/03/08 00:28:32;;;;;;;13.03;7.87;;;2.50;99.90;;;;;;5012076;28;20214;-72
2022/03/08 00:30:57;;;;;;;13.03;7.50;;;2.50;99.90;;;;;;5016087;28;20946;-80
2022/03/08 00:33:23;;;;;;;11.13;8.30;;;2.50;99.90;;;;;;5004812;28;20215;-71
2022/03/08 00:35:49;;;;;;;16.40;7.97;;;2.50;99.90;;;;;;5012940;28;20203;-71
2022/03/08 00:38:15;;;;;;;16.67;9.10;;;2.50;99.90;;;;;;5011136;28;20294;-70
2022/03/08 00:40:41;;;;;;;14.37;8.60;;;2.40;99.90;;;;;;5016959;28;20179;-70
2022/03/08 00:43:06;;;;;;;10.63;7.13;;;2.40;99.90;;;;;;5014446;28;20314;-73
2022/03/08 00:45:32;;;;;;;11.00;8.17;;;2.30;99.90;;;;;;5015073;28;20734;-79
2022/03/08 00:47:58;;;;;;;15.30;8.57;;;2.20;99.90;;;;;;5013018;28;20732;-72
2022/03/08 00:50:27;;;;;;;16.17;9.20;;;2.00;99.90;;;;;;4951348;28;20199;-71
2022/03/08 00:52:53;;;;;;;11.10;8.17;;;1.90;99.90;;;;;;5015492;28;20199;-82
2022/03/08 00:55:20;;;;;;;10.57;8.13;;;1.90;99.90;;;;;;5011441;28;20572;-69
2022/03/08 00:57:47;;;;;;;13.90;8.23;;;2.00;99.90;;;;;;5011840;28;20294;-69
2022/03/08 01:00:16;;;;;;;13.57;8.17;;;2.10;99.90;;;;;;5007639;28;20200;-69
2022/03/08 01:02:42;;;;;;;11.73;7.60;;;2.10;99.90;;;;;;5019233;28;20208;-69
2022/03/08 01:05:08;;;;;;;11.53;6.80;;;2.20;99.90;;;;;;5010927;28;20240;-71
2022/03/08 01:07:33;;;;;;;10.93;7.80;;;2.20;99.90;;;;;;5019205;28;20289;-73
2022/03/08 01:09:59;;;;;;;11.80;7.67;;;2.10;99.90;;;;;;5009448;28;20282;-73
2022/03/08 01:12:25;;;;;;;9.10;6.23;;;2.10;99.90;;;;;;5026190;28;20176;-74
2022/03/08 01:14:51;;;;;;;9.43;6.27;;;2.20;99.90;;;;;;5018775;28;20216;-73
2022/03/08 01:17:17;;;;;;;10.27;7.57;;;2.20;99.90;;;;;;5015741;28;20239;-73
2022/03/08 01:19:42;;;;;;;10.30;6.87;;;2.10;99.90;;;;;;5006648;28;20222;-71
2022/03/08 01:22:09;;;;;;;14.17;8.33;;;2.10;99.90;;;;;;5013141;28;20238;-70
2022/03/08 01:24:35;;;;;;;7.40;5.80;;;2.10;99.90;;;;;;5015395;28;20249;-68
2022/03/08 01:27:00;;;;;;;6.37;5.53;;;2.10;99.90;;;;;;5013739;28;20231;-70
2022/03/08 01:29:26;;;;;;;10.53;6.17;;;2.10;99.90;;;;;;5012150;28;20280;-70
2022/03/08 01:31:52;;;;;;;9.23;5.17;;;2.00;99.90;;;;;;4994617;28;20203;-71
2022/03/08 01:34:17;;;;;;;9.27;5.83;;;2.00;99.90;;;;;;5013463;28;20207;-66
2022/03/08 01:36:43;;;;;;;10.93;6.57;;;2.00;99.90;;;;;;5013828;28;20293;-67
2022/03/08 01:39:09;;;;;;;12.13;6.20;;;2.00;99.90;;;;;;5013563;28;20192;-66
2022/03/08 01:41:34;;;;;;;8.97;6.03;;;2.00;99.90;;;;;;5014003;28;20688;-67
2022/03/08 01:44:00;;;;;;;9.00;5.83;;;2.00;99.90;;;;;;5016073;28;20187;-66
2022/03/08 01:46:25;;;;;;;7.37;5.67;;;2.00;99.90;;;;;;5012422;28;20204;-67
2022/03/08 01:48:51;;;;;;;8.73;5.80;;;1.80;99.90;;;;;;5013742;28;20194;-66
2022/03/08 01:51:17;;;;;;;10.20;6.67;;;1.60;99.90;;;;;;5012187;28;21090;-68
2022/03/08 01:53:42;;;;;;;9.93;6.57;;;1.50;99.90;;;;;;5012968;28;20214;-68
2022/03/08 01:56:09;;;;;;;8.67;6.53;;;1.60;99.90;;;;;;5012373;28;20210;-67
2022/03/08 01:58:35;;;;;;;10.97;6.73;;;1.60;99.90;;;;;;5013380;28;20643;-67
2022/03/08 02:01:01;;;;;;;7.37;5.70;;;1.50;99.90;;;;;;5013502;28;20292;-71
2022/03/08 02:03:27;;;;;;;10.77;6.53;;;1.60;99.90;;;;;;5010449;28;20211;-79
2022/03/08 02:05:52;;;;;;;10.97;6.60;;;1.60;99.90;;;;;;5012259;28;20207;-70
2022/03/08 02:08:18;;;;;;;10.20;6.47;;;1.60;99.90;;;;;;5018638;28;20196;-77
2022/03/08 02:10:43;;;;;;;8.67;6.23;;;1.60;99.90;;;;;;5011833;28;20250;-67
2022/03/08 02:13:09;;;;;;;11.47;7.13;;;1.50;99.90;;;;;;5013282;28;20202;-67
2022/03/08 02:15:34;;;;;;;9.63;6.83;;;1.50;99.90;;;;;;5008979;28;20202;-71
2022/03/08 02:18:01;;;;;;;8.80;6.40;;;1.50;99.90;;;;;;5012980;28;20242;-70
2022/03/08 02:20:27;;;;;;;6.97;5.70;;;1.60;99.90;;;;;;5008927;28;20230;-72
2022/03/08 02:22:53;;;;;;;8.67;5.70;;;1.60;99.90;;;;;;5015768;28;20187;-68
2022/03/08 02:25:20;;;;;;;9.83;6.23;;;1.60;99.90;;;;;;5014182;28;20764;-67
2022/03/08 02:27:48;;;;;;;7.77;5.77;;;1.60;99.90;;;;;;4995877;28;20198;-67
2022/03/08 02:30:16;;;;;;;8.70;6.00;;;1.60;99.90;;;;;;5010182;28;20748;-70
2022/03/08 02:32:42;;;;;;;10.80;6.27;;;1.70;99.90;;;;;;5009147;28;20658;-72
2022/03/08 02:35:11;;;;;;;6.10;5.27;;;1.70;99.90;;;;;;5005381;28;20590;-71
2022/03/08 02:37:47;;;;;;;8.40;5.93;;;1.70;99.90;;;;;;5014695;28;20190;-67
2022/03/08 02:40:15;;;;;;;6.63;5.00;;;1.70;99.90;;;;;;5019594;28;20238;-67
2022/03/08 02:42:41;;;;;;;9.53;6.20;;;1.60;99.90;;;;;;5012391;28;20256;-67
2022/03/08 02:45:08;;;;;;;19.90;8.97;;;1.60;99.90;;;;;;5017433;28;20231;-67
2022/03/08 02:47:33;;;;;;;15.00;9.17;;;1.60;99.90;;;;;;5010640;28;20188;-66
2022/03/08 02:49:59;;;;;;;11.47;6.20;;;1.50;99.90;;;;;;5003786;28;20201;-70
2022/03/08 02:52:24;;;;;;;8.97;7.10;;;1.50;99.90;;;;;;5020596;28;20185;-69
2022/03/08 02:54:50;;;;;;;9.63;6.53;;;1.50;99.90;;;;;;5004869;28;20641;-68
2022/03/08 02:57:16;;;;;;;9.70;6.20;;;1.50;99.90;;;;;;5012480;28;20206;-70
2022/03/08 02:59:41;;;;;;;12.50;6.03;;;1.50;99.90;;;;;;5008130;28;20284;-69
2022/03/08 03:02:07;;;;;;;9.67;6.00;;;1.50;99.90;;;;;;5009537;28;20232;-69
2022/03/08 03:04:32;;;;;;;11.53;6.63;;;1.50;99.90;;;;;;5010899;28;20601;-70
2022/03/08 03:06:58;;;;;;;7.67;6.30;;;1.50;99.90;;;;;;5009578;28;20210;-67
2022/03/08 03:09:24;;;;;;;7.77;5.03;;;1.50;99.90;;;;;;5018073;28;20228;-67
2022/03/08 03:11:49;;;;;;;12.07;5.87;;;1.50;99.90;;;;;;5004603;28;20211;-67
2022/03/08 03:14:15;;;;;;;10.27;6.17;;;1.50;99.90;;;;;;5009600;28;20213;-68
2022/03/08 03:16:40;;;;;;;6.23;5.37;;;1.40;99.90;;;;;;5015464;28;20196;-67
2022/03/08 03:19:06;;;;;;;7.33;5.83;;;1.50;99.90;;;;;;5005186;28;20197;-72
2022/03/08 03:21:31;;;;;;;11.93;5.77;;;1.40;99.90;;;;;;5015006;28;20213;-70
2022/03/08 03:23:57;;;;;;;10.73;5.57;;;1.40;99.90;;;;;;5005223;28;20343;-71
2022/03/08 03:26:23;;;;;;;8.33;6.43;;;1.40;99.90;;;;;;5010392;28;20234;-70
2022/03/08 03:28:49;;;;;;;9.10;5.77;;;1.40;99.90;;;;;;5005132;28;20199;-71
2022/03/08 03:31:15;;;;;;;11.07;5.20;;;1.30;99.90;;;;;;5014786;28;20202;-70
2022/03/08 03:33:40;;;;;;;7.87;5.63;;;1.30;99.90;;;;;;5008810;28;20302;-70
2022/03/08 03:36:06;;;;;;;7.87;5.83;;;1.30;99.90;;;;;;5023752;28;20681;-71
2022/03/08 03:38:31;;;;;;;9.30;5.50;;;1.20;99.90;;;;;;5011509;28;20232;-70
2022/03/08 03:40:57;;;;;;;6.47;5.73;;;1.20;99.90;;;;;;5009427;28;20198;-71
2022/03/08 03:43:22;;;;;;;7.57;5.67;;;1.20;99.90;;;;;;5011429;28;20210;-70
2022/03/08 03:45:48;;;;;;;7.90;5.40;;;1.20;99.90;;;;;;5008764;28;20199;-71
2022/03/08 03:48:13;;;;;;;10.57;6.37;;;1.20;99.90;;;;;;5015471;28;20254;-69
2022/03/08 03:50:39;;;;;;;9.00;6.17;;;1.20;99.90;;;;;;5008069;28;20203;-69
2022/03/08 03:53:05;;;;;;;7.50;5.73;;;1.20;99.90;;;;;;5011793;28;20285;-69
2022/03/08 03:55:30;;;;;;;12.77;5.40;;;1.20;99.90;;;;;;5009283;28;20349;-69
2022/03/08 03:57:56;;;;;;;7.63;6.80;;;1.20;99.90;;;;;;5016706;28;20196;-70
2022/03/08 04:00:21;;;;;;;8.90;6.50;;;1.20;99.90;;;;;;5012665;28;20194;-70
2022/03/08 04:02:47;;;;;;;6.50;5.33;;;1.30;99.90;;;;;;5015616;28;20230;-74
2022/03/08 04:05:13;;;;;;;7.27;5.90;;;1.30;99.90;;;;;;5008332;28;20202;-68
2022/03/08 04:07:38;;;;;;;10.97;6.70;;;1.30;99.90;;;;;;5013543;28;20236;-68
2022/03/08 04:10:06;;;;;;;7.93;6.50;;;1.30;99.90;;;;;;5022344;28;20226;-68
2022/03/08 04:12:32;;;;;;;9.67;6.47;;;1.30;99.90;;;;;;5023471;28;20257;-68
2022/03/08 04:14:57;;;;;;;10.97;7.03;;;1.20;99.90;;;;;;5013997;28;20247;-69
2022/03/08 04:17:23;;;;;;;13.53;7.40;;;1.20;99.90;;;;;;5012199;28;20689;-69
2022/03/08 04:19:48;;;;;;;12.97;6.43;;;1.20;99.90;;;;;;5011796;28;20210;-68
2022/03/08 04:22:14;;;;;;;9.50;6.07;;;1.10;99.90;;;;;;5010040;28;20203;-68
2022/03/08 04:24:40;;;;;;;8.60;6.20;;;1.10;99.90;;;;;;5017259;28;20225;-69
2022/03/08 04:27:05;;;;;;;9.40;6.10;;;1.00;99.90;;;;;;5005426;28;20329;-68
2022/03/08 04:29:31;;;;;;;8.53;6.13;;;1.00;99.90;;;;;;5013001;28;20194;-67
2022/03/08 04:31:57;;;;;;;6.20;5.57;;;1.00;99.90;;;;;;5011760;28;20567;-67
2022/03/08 04:34:22;;;;;;;10.43;6.30;;;1.00;99.90;;;;;;5027046;28;20508;-68
2022/03/08 04:36:48;;;;;;;9.60;6.70;;;1.00;99.90;;;;;;5005484;28;20216;-68
2022/03/08 04:39:13;;;;;;;7.37;5.70;;;1.00;99.90;;;;;;5015935;28;20178;-69
2022/03/08 04:41:39;;;;;;;8.60;6.40;;;1.00;99.90;;;;;;5007575;28;20659;-70
2022/03/08 04:44:05;;;;;;;8.80;6.83;;;1.00;99.90;;;;;;5015611;28;20210;-72
2022/03/08 04:46:30;;;;;;;7.90;5.77;;;1.00;99.90;;;;;;5018908;28;20672;-70
2022/03/08 04:48:56;;;;;;;11.27;6.50;;;0.90;99.90;;;;;;5010158;28;20204;-71
2022/03/08 04:51:24;;;;;;;6.37;5.17;;;0.90;99.90;;;;;;5016021;28;20221;-71
2022/03/08 04:53:49;;;;;;;9.00;7.30;;;0.90;99.90;;;;;;5021014;28;20325;-69
2022/03/08 04:56:15;;;;;;;11.47;6.63;;;1.00;99.90;;;;;;5006909;28;20310;-69
2022/03/08 04:58:40;;;;;;;9.63;7.07;;;1.00;99.90;;;;;;5014701;28;20203;-69
2022/03/08 05:01:06;;;;;;;7.87;6.70;;;0.90;99.90;;;;;;5008840;28;20196;-67
2022/03/08 05:03:31;;;;;;;8.60;6.57;;;0.90;99.90;;;;;;5019040;28;20202;-67
2022/03/08 05:05:57;;;;;;;10.97;6.23;;;0.80;99.90;;;;;;5007290;28;20196;-67
2022/03/08 05:08:22;;;;;;;7.50;5.93;;;0.80;99.90;;;;;;5018454;28;20249;-69
2022/03/08 05:10:48;;;;;;;9.87;6.17;;;0.80;99.90;;;;;;5006749;28;20885;-71
2022/03/08 05:13:13;;;;;;;7.87;6.17;;;0.70;99.90;;;;;;5010264;28;20241;-71
2022/03/08 05:15:39;;;;;;;9.37;6.30;;;0.70;99.90;;;;;;5006787;28;20194;-75
2022/03/08 05:18:05;;;;;;;9.63;6.20;;;0.70;99.90;;;;;;5014456;28;20203;-73
2022/03/08 05:20:30;;;;;;;27.87;12.87;;;0.60;99.90;;;;;;5006057;28;20275;-66
2022/03/08 05:22:56;;;;;;;16.87;10.37;;;0.50;99.90;;;;;;5009214;28;20241;-64
2022/03/08 05:25:22;;;;;;;24.77;10.93;;;0.40;99.90;;;;;;5009860;28;20268;-70
2022/03/08 05:27:48;;;;;;;15.50;9.80;;;0.40;99.90;;;;;;5012889;28;20781;-71
2022/03/08 05:30:14;;;;;;;22.37;12.33;;;0.30;99.90;;;;;;5015760;28;20669;-70
2022/03/08 05:32:40;;;;;;;26.40;15.00;;;0.30;99.90;;;;;;5018544;28;20198;-73
2022/03/08 05:35:06;;;;;;;24.80;13.47;;;0.40;99.90;;;;;;5014971;28;20212;-72
2022/03/08 05:37:33;;;;;;;19.33;12.60;;;0.50;99.90;;;;;;5005293;28;20220;-71
2022/03/08 05:39:59;;;;;;;21.27;13.40;;;0.50;99.90;;;;;;5012577;28;20217;-71
2022/03/08 05:42:24;;;;;;;18.07;11.30;;;0.40;99.90;;;;;;5009773;28;20666;-70
2022/03/08 05:44:50;;;;;;;18.80;11.17;;;0.50;99.90;;;;;;5009553;28;20197;-68
2022/03/08 05:47:15;;;;;;;12.40;8.97;;;0.50;99.90;;;;;;5012850;28;20198;-68
2022/03/08 05:49:41;;;;;;;15.43;10.53;;;0.50;99.90;;;;;;5014421;28;20671;-69
2022/03/08 05:52:07;;;;;;;18.07;9.73;;;0.50;99.90;;;;;;5003877;28;20276;-70
2022/03/08 05:54:32;;;;;;;14.00;9.93;;;0.50;99.90;;;;;;5014020;28;20218;-70
2022/03/08 05:56:58;;;;;;;17.63;9.00;;;0.60;99.90;;;;;;5003728;28;20221;-70
2022/03/08 05:59:23;;;;;;;14.17;9.10;;;0.60;99.90;;;;;;5014572;28;20690;-69
2022/03/08 06:01:48;;;;;;;12.67;8.73;;;0.70;99.90;;;;;;5003966;28;20596;-69
2022/03/08 06:04:14;;;;;;;12.10;8.50;;;0.70;99.90;;;;;;5005807;28;20649;-68
2022/03/08 06:06:39;;;;;;;14.37;8.07;;;0.70;99.90;;;;;;5005551;28;20227;-69
2022/03/08 06:09:05;;;;;;;14.23;7.97;;;0.70;99.90;;;;;;5005416;28;20217;-69
2022/03/08 06:11:30;;;;;;;14.93;8.83;;;0.80;99.90;;;;;;5005461;28;20209;-68
2022/03/08 06:13:56;;;;;;;14.33;8.13;;;0.80;99.90;;;;;;5012576;28;20231;-69
2022/03/08 06:16:21;;;;;;;14.67;8.27;;;0.80;99.90;;;;;;5005257;28;20191;-70
2022/03/08 06:18:47;;;;;;;9.70;7.37;;;0.80;99.90;;;;;;5014657;28;20546;-66
2022/03/08 06:21:13;;;;;;;10.83;7.37;;;0.80;99.90;;;;;;5017191;28;20191;-70
2022/03/08 06:23:38;;;;;;;12.67;7.87;;;0.80;99.90;;;;;;5012864;28;20208;-69
2022/03/08 06:26:04;;;;;;;11.43;8.83;;;0.90;99.90;;;;;;5004864;28;20240;-69
2022/03/08 06:28:29;;;;;;;13.73;7.83;;;0.90;99.90;;;;;;5016901;28;20274;-69
2022/03/08 06:30:54;;;;;;;10.23;8.07;;;0.90;99.90;;;;;;5005794;28;20215;-68
2022/03/08 06:33:20;;;;;;;13.13;8.23;;;0.90;99.90;;;;;;5008347;28;20280;-69
2022/03/08 06:35:45;;;;;;;14.40;8.37;;;1.00;99.90;;;;;;5013242;28;20193;-69
2022/03/08 06:38:11;;;;;;;16.50;9.40;;;1.00;99.90;;;;;;5005687;28;20627;-69
2022/03/08 06:40:36;;;;;;;17.50;11.67;;;1.00;99.90;;;;;;4985670;28;20200;-69
2022/03/08 06:43:02;;;;;;;13.33;9.93;;;1.10;99.90;;;;;;5010868;28;20310;-69
2022/03/08 06:45:27;;;;;;;10.93;8.87;;;1.10;99.90;;;;;;5005723;28;20199;-69
2022/03/08 06:47:53;;;;;;;14.13;8.80;;;1.20;99.90;;;;;;5010217;28;20291;-70
2022/03/08 06:50:18;;;;;;;10.73;7.30;;;1.20;99.90;;;;;;5009875;28;20204;-69
2022/03/08 06:52:44;;;;;;;10.37;7.53;;;1.30;99.90;;;;;;5013239;28;20296;-69
2022/03/08 06:55:10;;;;;;;10.90;8.47;;;1.30;99.90;;;;;;5016265;28;20358;-69
2022/03/08 06:57:37;;;;;;;9.53;7.27;;;1.40;99.90;;;;;;5018271;28;20188;-69
2022/03/08 07:00:05;;;;;;;9.47;6.67;;;1.40;99.90;;;;;;5008651;28;20207;-71
2022/03/08 07:02:31;;;;;;;11.03;6.50;;;1.50;99.90;;;;;;5005215;28;20195;-68
2022/03/08 07:04:56;;;;;;;15.27;9.97;;;1.60;99.90;;;;;;5004159;28;20211;-68
2022/03/08 07:07:22;;;;;;;16.33;10.13;;;1.60;99.90;;;;;;5009690;28;20678;-68
2022/03/08 07:09:47;;;;;;;10.73;7.87;;;1.70;99.90;;;;;;5015008;28;20196;-71
2022/03/08 07:12:13;;;;;;;11.93;6.83;;;1.80;99.90;;;;;;5009288;28;20187;-72
2022/03/08 07:14:39;;;;;;;10.30;7.80;;;1.90;99.90;;;;;;5013994;28;20230;-71
2022/03/08 07:17:04;;;;;;;22.00;12.37;;;2.00;99.90;;;;;;5018085;28;20657;-72
2022/03/08 07:19:30;;;;;;;12.17;7.63;;;2.00;99.90;;;;;;5013501;28;20537;-72
2022/03/08 07:21:55;;;;;;;9.80;6.87;;;2.00;99.90;;;;;;5012358;28;20223;-74
2022/03/08 07:24:21;;;;;;;14.83;7.40;;;2.10;99.90;;;;;;5019378;28;20207;-71
2022/03/08 07:26:46;;;;;;;12.33;7.20;;;2.10;99.90;;;;;;5016918;28;20258;-70
2022/03/08 07:29:12;;;;;;;7.70;6.70;;;2.20;99.90;;;;;;5000694;28;20192;-73
2022/03/08 07:31:37;;;;;;;11.17;7.37;;;2.30;99.90;;;;;;5016275;28;20350;-70
2022/03/08 07:34:03;;;;;;;11.23;7.57;;;2.40;99.90;;;;;;5017071;28;20732;-70
2022/03/08 07:36:29;;;;;;;10.23;6.73;;;2.40;99.90;;;;;;5015590;28;20241;-70
2022/03/08 07:38:54;;;;;;;11.87;7.10;;;2.50;99.90;;;;;;5010987;28;20656;-70
2022/03/08 07:41:20;;;;;;;10.17;6.73;;;2.60;99.90;;;;;;5020208;28;20178;-70
2022/03/08 07:43:45;;;;;;;9.93;7.03;;;2.80;99.90;;;;;;5005923;28;20200;-70
2022/03/08 07:46:11;;;;;;;13.03;7.23;;;2.80;99.90;;;;;;5019599;28;20183;-70
2022/03/08 07:48:37;;;;;;;11.40;7.33;;;2.90;99.90;;;;;;5022940;28;20210;-70
2022/03/08 07:51:03;;;;;;;10.77;7.77;;;3.00;99.90;;;;;;5016291;28;20210;-68
2022/03/08 07:53:28;;;;;;;9.10;7.50;;;3.10;99.90;;;;;;5016632;28;20224;-68
2022/03/08 07:55:54;;;;;;;11.27;8.27;;;3.20;99.90;;;;;;5014702;28;20200;-72
2022/03/08 07:58:19;;;;;;;11.20;8.40;;;3.20;99.90;;;;;;5015493;28;20199;-75
2022/03/08 08:00:45;;;;;;;11.23;7.73;;;3.30;99.90;;;;;;5013496;28;20509;-75
2022/03/08 08:03:11;;;;;;;8.87;7.13;;;3.30;99.90;;;;;;5008135;28;20362;-75
2022/03/08 08:05:38;;;;;;;10.40;7.90;;;3.40;99.90;;;;;;5016814;28;20256;-75
2022/03/08 08:08:05;;;;;;;9.73;6.73;;;3.50;99.90;;;;;;5024697;28;20245;-73
2022/03/08 08:10:30;;;;;;;11.03;7.30;;;3.60;99.90;;;;;;5013074;28;20199;-73
2022/03/08 08:12:56;;;;;;;13.93;8.03;;;3.70;99.90;;;;;;5009306;28;20404;-73
2022/03/08 08:15:21;;;;;;;12.33;7.47;;;3.80;99.90;;;;;;5011648;28;20254;-74
2022/03/08 08:17:47;;;;;;;12.30;6.67;;;3.90;99.90;;;;;;5015170;28;20214;-73
2022/03/08 08:20:13;;;;;;;7.70;6.40;;;3.90;99.90;;;;;;5015330;28;20232;-74
2022/03/08 08:22:38;;;;;;;8.20;5.30;;;4.00;99.90;;;;;;5007311;28;20206;-73
2022/03/08 08:25:06;;;;;;;7.77;5.17;;;4.00;99.90;;;;;;5015574;28;20338;-73
2022/03/08 08:27:32;;;;;;;5.37;4.33;;;4.00;99.90;;;;;;5017830;28;20211;-73
2022/03/08 08:29:58;;;;;;;4.80;3.53;;;4.00;99.90;;;;;;5016265;28;20215;-73
2022/03/08 08:32:23;;;;;;;4.57;4.13;;;4.10;99.90;;;;;;5024368;28;20683;-73
2022/03/08 08:34:49;;;;;;;6.20;5.13;;;4.10;99.90;;;;;;5014543;28;20222;-74
2022/03/08 08:37:15;;;;;;;8.07;4.97;;;4.20;99.90;;;;;;5007229;28;20673;-72
2022/03/08 08:39:40;;;;;;;6.60;4.47;;;4.20;99.90;;;;;;5013221;28;20681;-72
2022/03/08 08:42:06;;;;;;;5.33;4.83;;;4.40;99.90;;;;;;5014621;28;20214;-72
2022/03/08 08:44:32;;;;;;;6.43;3.87;;;4.40;99.90;;;;;;5022995;28;20297;-73
2022/03/08 08:46:58;;;;;;;5.57;3.90;;;4.50;99.90;;;;;;5018741;28;20253;-74
2022/03/08 08:49:25;;;;;;;4.77;4.37;;;4.50;99.90;;;;;;5011132;28;20285;-73
2022/03/08 08:51:51;;;;;;;7.00;4.00;;;4.60;99.90;;;;;;5010807;28;20203;-72
2022/03/08 08:54:16;;;;;;;5.00;3.80;;;4.70;99.90;;;;;;5003782;28;20216;-73
2022/03/08 08:56:42;;;;;;;7.30;3.63;;;4.70;99.90;;;;;;5021906;28;20179;-73
2022/03/08 08:59:07;;;;;;;7.03;4.57;;;4.80;99.90;;;;;;5017631;28;20286;-73
2022/03/08 09:01:33;;;;;;;5.70;4.10;;;4.90;99.90;;;;;;5015375;28;20262;-73
2022/03/08 09:03:59;;;;;;;7.90;3.73;;;5.00;99.90;;;;;;5007156;28;20683;-76
2022/03/08 09:06:25;;;;;;;6.90;3.87;;;5.10;99.90;;;;;;5013879;28;20230;-74
2022/03/08 09:08:51;;;;;;;8.33;4.13;;;5.30;99.90;;;;;;5005730;28;20597;-74
2022/03/08 09:11:17;;;;;;;7.87;4.77;;;5.30;99.90;;;;;;5014988;28;20673;-71
2022/03/08 09:13:43;;;;;;;6.73;4.43;;;5.20;99.90;;;;;;5008165;28;20219;-78
2022/03/08 09:16:09;;;;;;;4.47;4.07;;;5.20;99.90;;;;;;5000210;28;20207;-75
2022/03/08 09:18:35;;;;;;;5.77;5.17;;;5.20;99.90;;;;;;5007103;28;20196;-73
2022/03/08 09:21:01;;;;;;;8.23;5.00;;;5.30;99.90;;;;;;5010882;28;20342;-69
2022/03/08 09:23:26;;;;;;;6.33;4.53;;;5.40;99.90;;;;;;5004048;28;20202;-69
2022/03/08 09:25:52;;;;;;;4.43;3.77;;;5.40;99.90;;;;;;5004235;28;20240;-71
2022/03/08 09:28:17;;;;;;;7.77;4.93;;;5.50;99.90;;;;;;5006496;28;20248;-67
2022/03/08 09:30:44;;;;;;;5.83;4.20;;;5.50;99.90;;;;;;5010259;28;20204;-71
2022/03/08 09:33:10;;;;;;;4.60;3.50;;;5.60;99.90;;;;;;5006249;28;20196;-69
2022/03/08 09:35:37;;;;;;;5.73;3.40;;;5.70;99.90;;;;;;5010127;28;20689;-74
2022/03/08 09:38:03;;;;;;;5.60;4.13;;;5.90;99.50;;;;;;5008428;28;21122;-74
2022/03/08 09:40:29;;;;;;;6.63;4.50;;;5.70;99.10;;;;;;5014251;28;20748;-74
2022/03/08 09:42:54;;;;;;;9.27;5.27;;;5.60;99.50;;;;;;5006539;28;20196;-73
2022/03/08 09:45:21;;;;;;;5.90;3.93;;;5.70;99.40;;;;;;5016748;28;20195;-73
2022/03/08 09:47:47;;;;;;;4.37;3.60;;;5.70;99.70;;;;;;5006027;28;20202;-73
2022/03/08 09:50:16;;;;;;;8.10;4.63;;;5.70;99.70;;;;;;5016776;28;20294;-73
2022/03/08 09:52:42;;;;;;;7.93;4.43;;;5.80;99.90;;;;;;5014705;28;20200;-72
2022/03/08 09:55:12;;;;;;;4.47;3.73;;;5.90;99.80;;;;;;5013644;28;20242;-72
2022/03/08 09:57:38;;;;;;;6.67;4.13;;;6.00;99.10;;;;;;5006272;28;20552;-72
2022/03/08 10:00:05;;;;;;;4.97;3.33;;;6.20;98.60;;;;;;5016099;28;20694;-72
2022/03/08 10:02:41;;;;;;;4.23;3.83;;;6.30;98.90;;;;;;5014737;28;20220;-73
2022/03/08 10:05:07;;;;;;;5.00;3.47;;;6.40;98.40;;;;;;5012739;28;20231;-72
2022/03/08 10:07:33;;;;;;;8.10;3.60;;;6.40;98.30;;;;;;5013928;28;20207;-72
2022/03/08 10:09:59;;;;;;;5.83;3.73;;;6.50;97.50;;;;;;5015692;28;20654;-70
2022/03/08 10:12:26;;;;;;;3.43;3.13;;;6.60;98.00;;;;;;5013902;28;20226;-69
2022/03/08 10:14:52;;;;;;;4.23;3.83;;;6.60;97.40;;;;;;5013230;28;20208;-69
2022/03/08 10:17:36;;;;;;;4.03;3.63;;;6.70;96.90;;;;;;5012285;28;20206;-69
2022/03/08 10:20:26;;;;;;;4.63;3.50;;;6.60;97.60;;;;;;5005657;28;20296;-69
2022/03/08 10:22:51;;;;;;;4.77;4.23;;;6.70;97.70;;;;;;5000421;28;20211;-68
2022/03/08 10:25:24;;;;;;;4.63;3.17;;;6.90;97.10;;;;;;5006175;28;20277;-69
2022/03/08 10:27:55;;;;;;;6.50;3.60;;;7.10;97.30;;;;;;5016312;28;20629;-71
2022/03/08 10:30:25;;;;;;;7.23;3.87;;;7.20;96.90;;;;;;5005515;28;20206;-71
2022/03/08 10:32:56;;;;;;;4.47;3.67;;;7.20;96.70;;;;;;5001294;28;20215;-71
2022/03/08 10:35:26;;;;;;;6.57;4.13;;;7.20;96.40;;;;;;5022514;28;20223;-70
2022/03/08 10:37:52;;;;;;;4.00;3.30;;;7.40;96.20;;;;;;5004105;28;20212;-70
2022/03/08 10:40:34;;;;;;;7.03;4.00;;;7.40;95.80;;;;;;5009680;28;20520;-71
2022/03/08 10:43:03;;;;;;;4.30;3.50;;;7.50;96.00;;;;;;4998674;28;20208;-71
2022/03/08 10:45:30;;;;;;;5.33;3.17;;;7.60;95.00;;;;;;5007800;28;20192;-71
2022/03/08 10:47:56;;;;;;;5.07;3.30;;;7.80;94.60;;;;;;5016510;28;20212;-70
2022/03/08 10:50:24;;;;;;;6.20;3.67;;;8.00;94.10;;;;;;5009872;28;20205;-69
2022/03/08 10:52:52;;;;;;;6.80;3.33;;;8.20;94.00;;;;;;5016252;28;20208;-68
2022/03/08 10:55:20;;;;;;;4.23;2.90;;;8.50;94.70;;;;;;5009471;28;20219;-69
2022/03/08 10:57:53;;;;;;;6.57;3.17;;;8.80;93.10;;;;;;5016089;28;20884;-70
2022/03/08 11:00:23;;;;;;;2.70;2.30;;;9.10;92.60;;;;;;5014298;28;20197;-70
2022/03/08 11:03:03;;;;;;;3.53;2.90;;;9.30;91.70;;;;;;5006225;28;20208;-69
2022/03/08 11:05:31;;;;;;;3.70;2.60;;;9.50;90.30;;;;;;5026150;28;20254;-70
2022/03/08 11:07:57;;;;;;;3.13;2.57;;;9.20;90.40;;;;;;5012484;28;20207;-69
2022/03/08 11:10:24;;;;;;;5.43;2.53;;;9.10;91.20;;;;;;5019161;28;20208;-69
2022/03/08 11:12:52;;;;;;;2.53;2.30;;;9.10;90.30;;;;;;5016462;28;20299;-69
2022/03/08 11:15:18;;;;;;;3.37;2.33;;;9.10;90.40;;;;;;5009601;28;20222;-69
2022/03/08 11:17:46;;;;;;;2.80;2.30;;;9.40;89.90;;;;;;5015791;28;20239;-69
2022/03/08 11:20:13;;;;;;;3.57;2.17;;;9.70;90.10;;;;;;5008898;28;20204;-69
2022/03/08 11:22:39;;;;;;;3.40;2.40;;;10.10;85.50;;;;;;5020039;28;20213;-72
2022/03/08 11:25:07;;;;;;;2.43;2.23;;;10.30;84.20;;;;;;4990905;28;21045;-70
2022/03/08 11:27:35;;;;;;;5.33;2.80;;;10.60;82.80;;;;;;5022123;28;20305;-69
2022/03/08 11:30:02;;;;;;;3.17;2.50;;;10.80;80.80;;;;;;5018901;28;20742;-69
2022/03/08 11:32:35;;;;;;;3.57;2.60;;;10.70;79.90;;;;;;5021383;28;20214;-73
2022/03/08 11:35:10;;;;;;;2.53;2.33;;;10.50;81.20;;;;;;5016738;28;20226;-69
2022/03/08 11:37:39;;;;;;;2.13;1.93;;;10.80;79.80;;;;;;4993810;28;20291;-70
2022/03/08 11:40:10;;;;;;;2.30;2.00;;;11.50;79.80;;;;;;5011474;28;20197;-71
2022/03/08 11:42:41;;;;;;;3.57;2.30;;;11.80;74.40;;;;;;5016191;28;20196;-74
2022/03/08 11:45:11;;;;;;;3.50;2.27;;;12.10;73.60;;;;;;5010360;28;20704;-68
2022/03/08 11:48:01;;;;;;;3.37;2.70;;;12.50;73.10;;;;;;5015428;28;20271;-69
2022/03/08 11:50:33;;;;;;;3.10;2.40;;;12.90;70.50;;;;;;5006679;28;20200;-72
2022/03/08 11:53:07;;;;;;;3.80;2.00;;;13.00;69.10;;;;;;5007033;28;20303;-72
2022/03/08 11:55:44;;;;;;;4.50;2.30;;;12.80;67.40;;;;;;5016623;28;20204;-73
2022/03/08 11:58:13;;;;;;;3.30;2.30;;;12.90;67.30;;;;;;5010764;28;20204;-73
2022/03/08 12:00:44;;;;;;;2.60;2.10;;;13.10;66.60;;;;;;5014681;28;20194;-73
2022/03/08 12:03:23;;;;;;;4.03;1.83;;;12.30;65.10;;;;;;5020755;28;20297;-73
2022/03/08 12:06:02;;;;;;;3.50;2.57;;;12.50;65.60;;;;;;5006617;28;20190;-73
2022/03/08 12:08:28;;;;;;;2.83;2.40;;;12.50;66.00;;;;;;5015936;28;20194;-70
2022/03/08 12:11:02;;;;;;;3.20;2.50;;;13.10;65.30;;;;;;5018875;28;20247;-78
2022/03/08 12:13:29;;;;;;;3.00;2.67;;;13.60;63.50;;;;;;5000196;28;20600;-74
2022/03/08 12:16:08;;;;;;;5.40;2.70;;;13.10;61.00;;;;;;5007909;28;20199;-73
2022/03/08 12:18:34;;;;;;;3.20;2.40;;;12.70;62.50;;;;;;5014697;28;20199;-69
2022/03/08 12:21:15;;;;;;;5.43;2.90;;;13.20;62.10;;;;;;5008257;28;20247;-68
2022/03/08 12:23:51;;;;;;;2.97;2.00;;;13.50;61.70;;;;;;5010637;28;20206;-68
2022/03/08 12:26:33;;;;;;;2.77;2.17;;;14.00;59.70;;;;;;5007168;28;20710;-67
2022/03/08 12:29:07;;;;;;;3.87;2.80;;;14.40;60.30;;;;;;5017368;28;20265;-68
2022/03/08 12:31:54;;;;;;;5.87;2.53;;;14.90;57.50;;;;;;5007160;28;20267;-68
2022/03/08 12:34:40;;;;;;;2.60;2.07;;;15.50;56.40;;;;;;5019533;28;20222;-67
2022/03/08 12:37:44;;;;;;;3.00;2.23;;;15.90;54.80;;;;;;5016558;28;20614;-69
2022/03/08 12:40:15;;;;;;;3.63;2.13;;;16.20;54.30;;;;;;5021683;28;20218;-66
2022/03/08 12:42:52;;;;;;;4.30;2.40;;;15.50;52.90;;;;;;5024088;28;20303;-67
2022/03/08 12:45:28;;;;;;;2.63;2.53;;;15.10;54.90;;;;;;4995524;28;20727;-67
2022/03/08 12:48:13;;;;;;;4.27;2.53;;;15.40;53.10;;;;;;5014667;28;20214;-68
2022/03/08 12:50:40;;;;;;;4.30;2.50;;;14.20;53.30;;;;;;5007050;28;20279;-70